Time;durP1;ratioP1;P1;durP2;ratioP2;P2;SDS_P1;SDS_P2;PMS_P1;PMS_P2;Temp;Humidity;BMP_temperature;BMP_pressure;BME280_temperature;BME280_humidity;BME280_pressure;Samples;Min_cycle;Max_cycle;Signal;HPM_P1;HPM_P2
2023/04/14 00:04:41;;;;;;;1169.35;999.90;;;;;;;21.58;48.67;98912.13;20745243;28;20046;-74
2023/04/14 00:14:42;;;;;;;1167.72;999.90;;;;;;;21.57;48.73;98870.94;20749721;28;20455;-74
2023/04/14 00:24:43;;;;;;;1168.93;999.90;;;;;;;21.57;48.70;98867.50;20749674;28;20046;-74
2023/04/14 00:34:44;;;;;;;1168.22;999.90;;;;;;;21.55;48.95;98851.00;20747048;28;20149;-74
2023/04/14 00:44:46;;;;;;;1169.25;999.90;;;;;;;21.55;49.04;98879.97;20745389;28;20049;-72
2023/04/14 00:54:48;;;;;;;1163.97;999.90;;;;;;;21.56;48.78;98879.00;20745771;28;20547;-73
2023/04/14 01:04:48;;;;;;;1168.80;999.90;;;;;;;21.54;48.77;98860.69;20736916;28;20065;-73
2023/04/14 01:15:11;;;;;;;1165.22;999.90;;;;;;;21.53;48.64;98843.25;20737628;28;21042;-74
2023/04/14 01:25:43;;;;;;;1163.55;999.90;;;;;;;21.53;48.65;98822.19;20744775;28;20037;-72
2023/04/14 01:35:55;;;;;;;1164.13;999.90;;;;;;;21.52;48.68;98770.50;20746657;28;20146;-72
2023/04/14 01:46:02;;;;;;;1163.27;999.90;;;;;;;21.50;48.95;98777.72;20742367;28;20061;-72
2023/04/14 01:56:05;;;;;;;1166.97;999.90;;;;;;;21.50;48.45;98771.66;20733724;28;21235;-72
2023/04/14 02:06:09;;;;;;;1163.72;999.90;;;;;;;21.49;48.82;98757.63;20758182;28;20041;-72
2023/04/14 02:16:10;;;;;;;1165.25;999.90;;;;;;;21.50;48.41;98740.03;20782698;28;20042;-72
2023/04/14 02:26:14;;;;;;;1168.55;999.90;;;;;;;21.50;48.38;98711.09;20752659;28;20081;-75
2023/04/14 02:36:19;;;;;;;1169.20;999.90;;;;;;;21.49;48.33;98738.41;20772213;28;20405;-74
2023/04/14 02:46:22;;;;;;;1165.50;999.90;;;;;;;21.48;48.19;98737.56;20757136;28;20073;-73
2023/04/14 02:56:24;;;;;;;1163.65;999.90;;;;;;;21.46;48.33;98726.38;20757280;28;20541;-73
2023/04/14 03:06:26;;;;;;;1165.93;999.90;;;;;;;21.46;48.21;98715.00;20737653;28;20057;-73
2023/04/14 03:16:29;;;;;;;1163.53;999.90;;;;;;;21.44;48.17;98702.00;20748108;28;20053;-73
2023/04/14 03:26:30;;;;;;;;;;;;;;;21.44;47.97;98668.59;20736201;28;20026;-74
2023/04/14 03:36:32;;;;;;;1164.75;999.90;;;;;;;21.44;47.95;98658.06;20738574;28;19924;-72
2023/04/14 03:47:02;;;;;;;1161.68;999.90;;;;;;;21.44;47.92;98604.56;20730014;28;20095;-72
2023/04/14 03:57:07;;;;;;;1163.20;999.90;;;;;;;21.52;47.84;98803.91;20734713;28;20395;-70
2023/04/14 04:07:12;;;;;;;1162.57;999.90;;;;;;;21.49;48.04;98762.91;20737945;28;20065;-71
2023/04/14 04:17:18;;;;;;;1165.20;999.90;;;;;;;21.42;47.86;98725.03;20749336;28;20042;-74
2023/04/14 04:27:20;;;;;;;1162.78;999.90;;;;;;;21.49;48.03;98731.31;20717928;28;20133;-70
2023/04/14 04:37:29;;;;;;;1162.55;999.90;;;;;;;21.55;49.30;98700.88;20740670;28;20120;-71
2023/04/14 04:47:29;;;;;;;1164.60;999.90;;;;;;;21.63;50.19;98711.47;20752071;28;20061;-71
2023/04/14 04:57:39;;;;;;;1168.82;999.90;;;;;;;21.67;50.45;98712.78;20741883;28;20622;-70
2023/04/14 05:07:42;;;;;;;1170.72;999.90;;;;;;;21.67;48.71;98735.66;20743550;28;21020;-72
2023/04/14 05:17:43;;;;;;;1163.05;999.90;;;;;;;21.66;48.57;98749.81;20758287;28;20041;-74
2023/04/14 05:27:43;;;;;;;1167.75;999.90;;;;;;;21.66;48.74;98753.28;20743444;28;21589;-77
2023/04/14 05:37:44;;;;;;;1164.55;999.90;;;;;;;21.59;46.43;98732.03;20731750;28;20034;-78
2023/04/14 05:47:44;;;;;;;1165.53;999.90;;;;;;;21.59;47.76;98733.81;20755457;28;20042;-77
2023/04/14 05:57:45;;;;;;;1165.38;999.90;;;;;;;21.61;47.75;98744.22;20746857;28;20041;-74
2023/04/14 06:07:50;;;;;;;1164.10;999.90;;;;;;;21.61;48.60;98739.75;20743764;28;20447;-74
2023/04/14 06:17:50;;;;;;;1166.95;999.90;;;;;;;21.63;48.35;98739.59;20752152;28;21782;-73
2023/04/14 06:27:51;;;;;;;1168.30;999.90;;;;;;;21.66;48.91;98726.94;20752942;28;20096;-73
2023/04/14 06:37:51;;;;;;;1168.68;999.90;;;;;;;21.67;49.16;98717.22;20739202;28;20046;-74
2023/04/14 06:47:52;;;;;;;1167.88;999.90;;;;;;;21.67;48.87;98710.13;20751494;28;20052;-73
2023/04/14 06:57:55;;;;;;;1166.70;999.90;;;;;;;21.69;49.38;98720.50;20748754;28;20042;-73
2023/04/14 07:07:55;;;;;;;1168.80;999.90;;;;;;;21.71;49.66;98706.19;20728001;28;20076;-74
2023/04/14 07:17:56;;;;;;;1169.13;999.90;;;;;;;21.72;49.97;98699.94;20754991;28;20133;-73
2023/04/14 07:27:56;;;;;;;1169.25;999.90;;;;;;;21.74;49.77;98700.59;20743486;28;20046;-73
2023/04/14 07:37:57;;;;;;;1169.22;999.90;;;;;;;21.73;49.47;98687.59;20742334;28;20053;-75
2023/04/14 07:47:57;;;;;;;1173.18;999.90;;;;;;;21.75;49.61;98694.34;20734369;28;20042;-74
2023/04/14 07:57:57;;;;;;;1168.35;999.90;;;;;;;21.77;49.83;98686.28;20744717;28;20057;-74
2023/04/14 08:07:58;;;;;;;1169.82;999.90;;;;;;;21.78;49.52;98709.00;20757737;28;20041;-74
2023/04/14 08:17:58;;;;;;;1171.20;999.90;;;;;;;21.79;49.80;98691.38;20782253;28;20042;-74
2023/04/14 08:27:59;;;;;;;1173.22;999.90;;;;;;;21.80;49.50;98677.22;20790791;28;20049;-74
2023/04/14 08:38:01;;;;;;;1173.00;999.90;;;;;;;21.79;49.33;98679.03;20769568;28;20042;-75
2023/04/14 08:48:04;;;;;;;1170.57;999.90;;;;;;;21.77;49.49;98694.19;20753515;28;20037;-75
2023/04/14 08:58:06;;;;;;;1173.47;999.90;;;;;;;21.80;49.33;98716.72;20773193;28;20037;-75
2023/04/14 09:08:09;;;;;;;1169.57;999.90;;;;;;;21.79;49.68;98715.09;20768099;28;20045;-76
2023/04/14 09:18:10;;;;;;;1166.65;999.90;;;;;;;21.80;49.30;98719.38;20764179;28;20171;-75
2023/04/14 09:28:13;;;;;;;1170.38;999.90;;;;;;;21.80;49.46;98727.28;20765700;28;20050;-74
2023/04/14 09:38:15;;;;;;;1172.13;999.90;;;;;;;21.81;49.47;98742.09;20753467;28;20050;-74
2023/04/14 09:48:17;;;;;;;1169.60;999.90;;;;;;;21.79;49.54;98723.81;20757903;28;20104;-73
2023/04/14 09:58:21;;;;;;;1169.70;999.90;;;;;;;21.81;49.27;98718.38;20755906;28;20041;-74
2023/04/14 10:08:33;;;;;;;1172.38;999.90;;;;;;;21.81;49.59;98721.03;20761148;28;20046;-74
2023/04/14 10:18:34;;;;;;;1170.03;999.90;;;;;;;21.80;49.31;98722.84;20745457;28;20043;-74
2023/04/14 10:28:37;;;;;;;1170.22;999.90;;;;;;;21.79;49.37;98726.47;20757113;28;20103;-73
2023/04/14 10:38:42;;;;;;;1172.90;999.90;;;;;;;21.79;49.26;98723.81;20749685;28;20046;-74
2023/04/14 10:48:46;;;;;;;1172.43;999.90;;;;;;;21.78;49.40;98719.53;20771921;28;20461;-73
2023/04/14 10:58:57;;;;;;;1170.05;999.90;;;;;;;21.79;49.32;98713.28;20767802;28;21196;-75
2023/04/14 11:08:57;;;;;;;1171.88;999.90;;;;;;;21.79;49.37;98705.38;20759536;28;20038;-74
2023/04/14 11:19:00;;;;;;;1171.25;999.90;;;;;;;21.80;49.39;98700.94;20743357;28;20057;-73
2023/04/14 11:29:07;;;;;;;1169.60;999.90;;;;;;;21.80;49.44;98695.66;20748238;28;20050;-73
2023/04/14 11:39:08;;;;;;;1174.25;999.90;;;;;;;21.78;49.34;98697.66;20724537;28;20070;-74
2023/04/14 11:49:09;;;;;;;1173.22;999.90;;;;;;;21.70;48.22;98688.75;20719664;28;20170;-73
2023/04/14 11:59:10;;;;;;;1171.07;999.90;;;;;;;21.70;49.00;98688.75;20716266;28;20049;-74
2023/04/14 12:09:10;;;;;;;1170.28;999.90;;;;;;;21.75;49.90;98681.19;20737441;28;20409;-73
2023/04/14 12:19:10;;;;;;;1168.47;999.90;;;;;;;;;;20735886;28;20513;-75
2023/04/14 12:29:14;;;;;;;1169.13;999.90;;;;;;;21.76;50.03;98658.28;20724873;28;20050;-74
2023/04/14 12:39:14;;;;;;;1173.22;999.90;;;;;;;21.77;49.87;98685.47;20737587;28;20049;-73
2023/04/14 12:49:36;;;;;;;1172.68;999.90;;;;;;;21.77;49.98;98709.19;20745010;28;20133;-73
2023/04/14 12:59:38;;;;;;;1166.00;999.90;;;;;;;21.78;49.95;98713.47;20732531;28;20049;-74
2023/04/14 13:09:38;;;;;;;1165.77;999.90;;;;;;;21.76;49.88;98739.94;20740772;28;20650;-74
2023/04/14 13:19:39;;;;;;;1170.57;999.90;;;;;;;21.75;49.81;98733.88;20726076;28;20045;-74
2023/04/14 13:29:39;;;;;;;1171.93;999.90;;;;;;;21.74;49.69;98741.94;20721485;28;20045;-74
2023/04/14 13:39:41;;;;;;;1171.63;999.90;;;;;;;21.75;49.75;98768.13;20690972;28;20046;-74
2023/04/14 13:49:41;;;;;;;1168.47;999.90;;;;;;;21.78;50.58;98743.25;20706437;28;20041;-73
2023/04/14 13:59:42;;;;;;;1171.95;999.90;;;;;;;21.80;50.74;98761.53;20702336;28;20049;-73
2023/04/14 14:09:44;;;;;;;1170.65;999.90;;;;;;;21.80;50.40;98758.88;20710792;28;20181;-73
2023/04/14 14:19:45;;;;;;;1171.57;999.90;;;;;;;21.78;49.74;98776.69;20709513;28;20046;-73
2023/04/14 14:29:45;;;;;;;1165.82;999.90;;;;;;;21.54;46.94;98786.13;20742819;28;20099;-75
2023/04/14 14:39:46;;;;;;;1159.22;999.90;;;;;;;21.23;48.09;98811.19;20750696;28;20562;-73
2023/04/14 14:49:46;;;;;;;1155.82;999.90;;;;;;;21.06;45.44;98814.75;20741996;28;20322;-72
2023/04/14 14:59:47;;;;;;;1159.68;999.90;;;;;;;21.16;47.93;98833.06;20747215;28;20397;-74
2023/04/14 15:09:49;;;;;;;1166.88;999.90;;;;;;;21.35;48.11;98839.88;20725993;28;20121;-75
2023/04/14 15:19:49;;;;;;;1170.43;999.90;;;;;;;21.46;48.61;98855.41;20737002;28;20065;-73
2023/04/14 15:29:50;;;;;;;1175.05;999.90;;;;;;;21.54;48.38;98857.25;20737423;28;20520;-76
2023/04/14 15:39:51;;;;;;;1180.45;999.90;;;;;;;21.61;48.42;98852.22;20758607;28;20499;-75
2023/04/14 15:49:51;;;;;;;1183.32;999.90;;;;;;;21.65;48.55;98877.25;20751882;28;20412;-76
2023/04/14 15:59:54;;;;;;;1185.43;999.90;;;;;;;21.69;48.55;98902.28;20746190;28;20516;-78
2023/04/14 16:09:54;;;;;;;1182.97;999.90;;;;;;;21.71;48.54;98910.84;20726702;28;20104;-78
2023/04/14 16:19:56;;;;;;;1186.50;999.90;;;;;;;21.76;48.69;98932.28;20719058;28;20046;-78
2023/04/14 16:29:57;;;;;;;;;;;;;;;21.81;48.66;98924.72;20716455;28;20095;-76
2023/04/14 16:39:57;;;;;;;1186.88;999.90;;;;;;;21.83;48.51;98940.38;20704442;28;19929;-80
2023/04/14 16:50:00;;;;;;;1182.40;999.90;;;;;;;21.84;48.91;98956.03;20717023;28;20045;-78
2023/04/14 17:00:01;;;;;;;1184.60;999.90;;;;;;;21.88;48.85;98969.72;20699839;28;20536;-76
2023/04/14 17:10:03;;;;;;;1188.20;999.90;;;;;;;21.94;50.11;98984.91;20699479;28;20212;-76
2023/04/14 17:20:09;;;;;;;1181.30;999.90;;;;;;;21.91;49.75;98985.22;20712070;28;20046;-76
2023/04/14 17:30:09;;;;;;;1185.95;999.90;;;;;;;21.94;48.17;98990.16;20713473;28;20143;-80
2023/04/14 17:40:11;;;;;;;1188.85;999.90;;;;;;;21.97;50.26;99000.41;20727698;28;20053;-79
2023/04/14 17:50:12;;;;;;;1191.43;999.90;;;;;;;22.02;51.61;99027.09;20736715;28;20041;-77
2023/04/14 18:00:13;;;;;;;1115.57;999.90;;;;;;;22.07;52.33;99045.09;20746508;28;20054;-76
2023/04/14 18:10:15;;;;;;;1147.93;999.90;;;;;;;22.12;51.89;99069.16;20700441;28;20786;-77
2023/04/14 18:20:20;;;;;;;1147.25;999.90;;;;;;;22.11;51.31;99096.50;20740154;28;21300;-76
2023/04/14 18:30:21;;;;;;;1131.78;999.90;;;;;;;22.11;51.34;99104.41;20734924;28;20057;-75
2023/04/14 18:40:22;;;;;;;1140.55;999.90;;;;;;;22.10;51.39;99117.75;20744382;28;20049;-77
2023/04/14 18:50:23;;;;;;;1118.25;999.90;;;;;;;22.10;51.23;99129.13;20751445;28;20041;-76
2023/04/14 19:00:28;;;;;;;1162.55;999.90;;;;;;;22.09;50.80;99138.00;20749597;28;20074;-76
2023/04/14 19:10:29;;;;;;;1142.10;999.90;;;;;;;22.08;50.66;99131.06;20759833;28;20050;-77
2023/04/14 19:20:30;;;;;;;1135.75;999.90;;;;;;;22.05;50.88;99150.66;20751529;28;20472;-76
2023/04/14 19:30:31;;;;;;;1148.20;999.90;;;;;;;22.06;51.24;99169.97;20745136;28;20429;-78
2023/04/14 19:40:32;;;;;;;1150.97;999.90;;;;;;;22.07;50.47;99182.16;20701429;28;20128;-79
2023/04/14 19:50:34;;;;;;;1139.47;999.90;;;;;;;22.04;50.59;99187.72;20742617;28;20053;-79
2023/04/14 20:00:39;;;;;;;1106.15;999.90;;;;;;;22.01;50.77;99199.41;20726664;28;20042;-75
2023/04/14 20:10:40;;;;;;;1094.57;999.90;;;;;;;21.97;50.31;99195.44;20714647;28;20057;-80
2023/04/14 20:20:41;;;;;;;1118.55;999.90;;;;;;;21.96;50.68;99206.13;20720915;28;20041;-81
2023/04/14 20:30:46;;;;;;;1125.65;999.90;;;;;;;21.95;50.21;99192.13;20709724;28;20030;-79
2023/04/14 20:40:47;;;;;;;1139.95;999.90;;;;;;;21.92;50.44;99202.94;20720178;28;20053;-79
2023/04/14 20:50:48;;;;;;;1132.10;999.90;;;;;;;21.90;50.10;99221.56;20710641;28;20049;-80
2023/04/14 21:00:50;;;;;;;1131.20;999.90;;;;;;;21.89;50.35;99229.63;20732853;28;20041;-79
2023/04/14 21:10:51;;;;;;;1142.53;999.90;;;;;;;21.86;49.90;99228.13;20745424;28;20038;-80
2023/04/14 21:20:51;;;;;;;1146.18;999.90;;;;;;;21.85;49.95;99209.81;20742941;28;20037;-80
2023/04/14 21:30:59;;;;;;;1147.32;999.90;;;;;;;21.83;49.78;99222.34;20740685;28;20084;-79
2023/04/14 21:41:00;;;;;;;1158.40;999.90;;;;;;;21.80;49.65;99249.81;20745397;28;20316;-81
2023/04/14 21:51:03;;;;;;;1165.57;999.90;;;;;;;21.81;49.53;99238.28;20734564;28;20041;-77
2023/04/14 22:01:04;;;;;;;1165.13;999.90;;;;;;;21.82;49.69;99255.75;20735433;28;20038;-79
2023/04/14 22:11:05;;;;;;;1160.25;999.90;;;;;;;21.82;49.66;99266.28;20741375;28;20404;-77
2023/04/14 22:21:09;;;;;;;1135.47;999.90;;;;;;;21.77;49.74;99265.91;20737795;28;20054;-75
2023/04/14 22:31:09;;;;;;;1142.72;999.90;;;;;;;21.71;49.42;99263.88;20751360;28;20054;-75
2023/04/14 22:41:14;;;;;;;1153.22;999.90;;;;;;;21.66;49.39;99259.06;20763667;28;20042;-75
2023/04/14 22:51:14;;;;;;;1152.60;999.90;;;;;;;21.61;49.70;99256.03;20758321;28;20504;-75
2023/04/14 23:01:15;;;;;;;1146.75;999.90;;;;;;;21.58;49.92;99266.88;20756054;28;20080;-79
2023/04/14 23:11:18;;;;;;;1144.40;999.90;;;;;;;21.54;49.84;99257.59;20733059;28;20096;-77
2023/04/14 23:21:20;;;;;;;;;;;;;;;21.49;50.02;99270.38;20739028;28;20576;-78
2023/04/14 23:31:21;;;;;;;1145.05;999.90;;;;;;;21.49;49.97;99271.19;20743478;28;19929;-77
2023/04/14 23:41:23;;;;;;;1137.38;999.90;;;;;;;21.48;49.60;99282.69;20728797;28;20045;-77
2023/04/14 23:51:23;;;;;;;1157.85;999.90;;;;;;;21.47;49.82;99278.44;20733771;28;20050;-79
